createdAt,value
2018-05-17T00:01:19.286Z,98.90
2018-05-17T00:03:46.739Z,99.50
2018-05-17T00:06:14.220Z,99.70
2018-05-17T00:08:41.666Z,98.20
2018-05-17T00:11:09.147Z,97.40
2018-05-17T00:13:36.595Z,98.10
2018-05-17T00:16:04.123Z,97.90
2018-05-17T00:18:31.550Z,99.80
2018-05-17T00:20:59.771Z,99.80
2018-05-17T00:23:27.211Z,99.80
2018-05-17T00:25:54.687Z,97.80
2018-05-17T00:28:22.203Z,99.30
2018-05-17T00:30:49.743Z,99.80
2018-05-17T00:33:17.207Z,99.40
2018-05-17T00:35:44.745Z,99.40
2018-05-17T00:38:13.665Z,99.90
2018-05-17T00:40:41.131Z,99.90
2018-05-17T00:43:08.587Z,98.80
2018-05-17T00:45:36.042Z,99.80
2018-05-17T00:48:03.493Z,98.80
2018-05-17T00:50:30.966Z,99.90
2018-05-17T00:53:10.507Z,99.70
2018-05-17T00:55:37.954Z,99.90
2018-05-17T00:58:05.409Z,99.90
2018-05-17T01:00:32.891Z,99.90
2018-05-17T01:03:00.355Z,99.00
2018-05-17T01:05:27.986Z,98.60
2018-05-17T01:07:55.470Z,99.90
2018-05-17T01:10:22.951Z,99.90
2018-05-17T01:12:50.417Z,99.90
2018-05-17T01:15:17.868Z,99.90
2018-05-17T01:17:45.306Z,99.90
2018-05-17T01:20:12.787Z,99.90
2018-05-17T01:22:40.228Z,99.90
2018-05-17T01:25:07.675Z,99.90
2018-05-17T01:27:35.119Z,98.80
2018-05-17T01:30:03.359Z,99.90
2018-05-17T01:32:30.810Z,99.90
2018-05-17T01:34:58.277Z,99.90
2018-05-17T01:37:37.522Z,99.90
2018-05-17T01:40:06.503Z,99.90
2018-05-17T01:42:33.950Z,99.90
2018-05-17T01:45:01.422Z,99.50
2018-05-17T01:47:29.004Z,99.90
2018-05-17T01:49:56.462Z,99.90
2018-05-17T01:52:23.897Z,99.90
2018-05-17T01:54:51.376Z,99.10
2018-05-17T01:57:18.829Z,99.40
2018-05-17T01:59:46.306Z,99.90
2018-05-17T02:02:13.849Z,99.90
2018-05-17T02:04:41.315Z,99.90
2018-05-17T02:07:08.758Z,99.90
2018-05-17T02:09:36.240Z,99.20
2018-05-17T02:12:03.687Z,99.90
2018-05-17T02:14:31.134Z,99.90
2018-05-17T02:16:58.588Z,99.60
2018-05-17T02:19:26.032Z,99.90
2018-05-17T02:21:54.264Z,99.30
2018-05-17T02:24:21.750Z,99.30
2018-05-17T02:26:50.003Z,99.70
2018-05-17T02:29:17.479Z,99.60
2018-05-17T02:31:44.939Z,99.90
2018-05-17T02:34:12.389Z,99.90
2018-05-17T02:36:39.838Z,99.90
2018-05-17T02:39:07.294Z,99.90
2018-05-17T02:41:34.776Z,99.90
2018-05-17T02:44:02.243Z,99.50
2018-05-17T02:46:29.690Z,99.90
2018-05-17T02:48:57.270Z,99.60
2018-05-17T02:51:24.723Z,99.90
2018-05-17T02:53:52.183Z,99.80
2018-05-17T02:56:19.638Z,99.90
2018-05-17T02:58:47.115Z,99.90
2018-05-17T03:01:14.692Z,99.90
2018-05-17T03:03:42.126Z,99.90
2018-05-17T03:06:09.598Z,99.90
2018-05-17T03:08:37.043Z,99.90
2018-05-17T03:11:04.500Z,99.80
2018-05-17T03:13:31.944Z,99.90
2018-05-17T03:15:59.458Z,99.90
2018-05-17T03:18:26.891Z,99.90
2018-05-17T03:20:54.358Z,99.90
2018-05-17T03:23:21.810Z,99.70
2018-05-17T03:25:49.270Z,99.40
2018-05-17T03:28:16.719Z,99.20
2018-05-17T03:30:44.187Z,99.00
2018-05-17T03:33:11.629Z,99.90
2018-05-17T03:35:39.201Z,98.70
2018-05-17T03:38:06.701Z,99.20
2018-05-17T03:40:34.227Z,98.70
2018-05-17T03:43:01.668Z,99.10
2018-05-17T03:45:29.893Z,98.30
2018-05-17T03:47:57.354Z,98.30
2018-05-17T03:50:25.812Z,99.50
2018-05-17T03:52:53.269Z,99.20
2018-05-17T03:55:20.767Z,99.70
2018-05-17T03:57:48.219Z,99.90
2018-05-17T04:00:15.763Z,99.50
2018-05-17T04:02:55.034Z,99.80
2018-05-17T04:05:34.250Z,99.80
2018-05-17T04:08:02.659Z,99.10
2018-05-17T04:10:30.103Z,99.90
2018-05-17T04:12:57.563Z,98.80
2018-05-17T04:15:24.998Z,99.90
2018-05-17T04:17:52.452Z,99.40
2018-05-17T04:20:19.883Z,98.10
2018-05-17T04:22:48.107Z,99.50
2018-05-17T04:25:15.573Z,99.40
2018-05-17T04:27:43.050Z,98.80
2018-05-17T04:30:10.497Z,98.10
2018-05-17T04:32:37.963Z,99.80
2018-05-17T04:35:05.418Z,98.00
2018-05-17T04:37:32.871Z,97.50
2018-05-17T04:40:00.347Z,98.10
2018-05-17T04:42:27.810Z,99.90
2018-05-17T04:44:55.256Z,97.90
2018-05-17T04:47:22.743Z,97.50
2018-05-17T04:49:51.698Z,98.50
2018-05-17T04:52:19.183Z,98.50
2018-05-17T04:54:46.742Z,99.90
2018-05-17T04:57:14.119Z,99.30
2018-05-17T04:59:41.996Z,98.70
2018-05-17T05:02:09.555Z,99.50
2018-05-17T05:04:37.014Z,99.60
2018-05-17T05:07:04.575Z,99.60
2018-05-17T05:09:32.150Z,99.00
2018-05-17T05:11:59.512Z,98.10
2018-05-17T05:14:27.062Z,98.00
2018-05-17T05:16:54.691Z,98.20
2018-05-17T05:19:22.199Z,99.00
2018-05-17T05:21:49.751Z,98.60
2018-05-17T05:24:17.215Z,97.10
2018-05-17T05:26:44.658Z,97.30
2018-05-17T05:29:12.111Z,98.00
2018-05-17T05:31:39.555Z,99.00
2018-05-17T05:34:07.763Z,97.30
2018-05-17T05:36:35.204Z,97.20
2018-05-17T05:39:02.699Z,97.80
2018-05-17T05:41:30.144Z,97.40
2018-05-17T05:43:58.363Z,97.10
2018-05-17T05:46:25.822Z,97.30
2018-05-17T05:48:54.080Z,97.70
2018-05-17T05:51:21.513Z,97.60
2018-05-17T05:53:49.006Z,97.50
2018-05-17T05:56:16.467Z,99.50
2018-05-17T05:58:44.031Z,96.90
2018-05-17T06:01:11.562Z,97.30
2018-05-17T06:03:39.061Z,98.60
2018-05-17T06:06:06.511Z,97.40
2018-05-17T06:08:33.963Z,97.90
2018-05-17T06:11:01.411Z,96.30
2018-05-17T06:13:28.877Z,96.70
2018-05-17T06:15:56.359Z,99.00
2018-05-17T06:18:23.825Z,98.10
2018-05-17T06:20:51.303Z,97.90
2018-05-17T06:23:20.374Z,98.80
2018-05-17T06:25:47.846Z,98.80
2018-05-17T06:28:15.323Z,96.80
2018-05-17T06:30:42.768Z,96.10
2018-05-17T06:33:10.331Z,96.30
2018-05-17T06:35:37.792Z,95.90
2018-05-17T06:38:05.250Z,96.00
2018-05-17T06:40:32.719Z,97.10
2018-05-17T06:43:00.286Z,98.20
2018-05-17T06:45:27.859Z,96.20
2018-05-17T06:47:55.311Z,98.50
2018-05-17T06:50:22.839Z,97.70
2018-05-17T06:52:50.282Z,97.10
2018-05-17T06:55:18.508Z,95.40
2018-05-17T06:57:45.983Z,95.40
2018-05-17T07:00:13.439Z,97.80
2018-05-17T07:02:40.894Z,97.20
2018-05-17T07:05:08.459Z,96.40
2018-05-17T07:07:35.911Z,97.00
2018-05-17T07:10:03.375Z,97.50
2018-05-17T07:12:30.831Z,97.20
2018-05-17T07:14:58.299Z,97.40
2018-05-17T07:17:25.760Z,97.40
2018-05-17T07:19:53.206Z,96.20
2018-05-17T07:22:20.777Z,97.00
2018-05-17T07:24:48.246Z,96.10
2018-05-17T07:27:15.678Z,95.80
2018-05-17T07:29:43.174Z,95.00
2018-05-17T07:32:10.606Z,97.20
2018-05-17T07:34:38.083Z,96.70
2018-05-17T07:37:05.527Z,96.00
2018-05-17T07:39:33.021Z,97.50
2018-05-17T07:42:00.460Z,95.70
2018-05-17T07:44:27.907Z,97.40
2018-05-17T07:46:55.338Z,96.90
2018-05-17T07:49:23.572Z,96.60
2018-05-17T07:51:51.114Z,96.60
2018-05-17T07:54:18.606Z,95.30
2018-05-17T07:56:46.063Z,96.40
2018-05-17T07:59:13.534Z,96.00
2018-05-17T08:01:41.073Z,94.00
2018-05-17T08:04:08.559Z,95.90
2018-05-17T08:06:35.995Z,93.50
2018-05-17T08:09:03.443Z,95.80
2018-05-17T08:11:30.935Z,94.30
2018-05-17T08:13:58.387Z,95.60
2018-05-17T08:16:25.855Z,93.90
2018-05-17T08:18:53.322Z,94.60
2018-05-17T08:21:20.760Z,95.80
2018-05-17T08:23:48.210Z,94.90
2018-05-17T08:26:15.702Z,95.70
2018-05-17T08:28:43.187Z,94.60
2018-05-17T08:31:10.630Z,94.60
2018-05-17T08:33:38.099Z,94.20
2018-05-17T08:36:05.550Z,94.70
2018-05-17T08:38:33.007Z,94.80
2018-05-17T08:41:00.483Z,93.80
2018-05-17T08:43:27.922Z,94.50
2018-05-17T08:45:55.446Z,94.20
2018-05-17T08:48:23.656Z,96.70
2018-05-17T08:50:51.139Z,96.70
2018-05-17T08:53:18.694Z,95.50
2018-05-17T08:55:46.171Z,92.60
2018-05-17T08:58:13.610Z,94.00
2018-05-17T09:00:41.082Z,94.60
2018-05-17T09:03:09.091Z,93.80
2018-05-17T09:05:37.310Z,93.50
2018-05-17T09:08:04.751Z,93.20
2018-05-17T09:10:32.254Z,92.50
2018-05-17T09:12:59.714Z,93.10
2018-05-17T09:15:27.158Z,91.40
2018-05-17T09:17:54.607Z,91.30
2018-05-17T09:20:22.118Z,92.80
2018-05-17T09:22:49.577Z,92.30
2018-05-17T09:25:17.750Z,91.70
2018-05-17T09:27:45.194Z,90.90
2018-05-17T09:30:12.676Z,90.40
2018-05-17T09:32:40.218Z,90.90
2018-05-17T09:35:07.675Z,92.30
2018-05-17T09:37:35.132Z,91.90
2018-05-17T09:40:02.592Z,91.80
2018-05-17T09:42:30.055Z,91.70
2018-05-17T09:44:57.499Z,91.80
2018-05-17T09:47:25.819Z,92.10
2018-05-17T09:49:53.271Z,91.60
2018-05-17T09:52:20.746Z,91.00
2018-05-17T09:54:48.207Z,91.50
2018-05-17T09:57:15.638Z,91.70
2018-05-17T09:59:43.091Z,91.70
2018-05-17T10:02:10.535Z,91.40
2018-05-17T10:04:38.758Z,87.90
2018-05-17T10:07:06.199Z,87.80
2018-05-17T10:09:33.652Z,89.40
2018-05-17T10:12:01.094Z,90.40
2018-05-17T10:14:29.455Z,91.10
2018-05-17T10:16:56.886Z,91.10
2018-05-17T10:19:24.358Z,90.90
2018-05-17T10:21:51.897Z,90.50
2018-05-17T10:24:19.272Z,90.70
2018-05-17T10:26:46.724Z,90.40
2018-05-17T10:29:14.172Z,90.30
2018-05-17T10:31:41.654Z,90.10
2018-05-17T10:34:09.106Z,89.90
2018-05-17T10:36:36.559Z,89.20
2018-05-17T10:39:04.000Z,87.10
2018-05-17T10:41:31.506Z,87.50
2018-05-17T10:43:58.962Z,87.00
2018-05-17T10:46:26.415Z,87.70
2018-05-17T10:48:53.901Z,85.60
2018-05-17T10:51:21.320Z,86.80
2018-05-17T10:53:48.913Z,83.80
2018-05-17T10:56:16.372Z,83.50
2018-05-17T10:58:43.833Z,83.70
2018-05-17T11:01:11.289Z,83.50
2018-05-17T11:03:38.777Z,87.20
2018-05-17T11:06:06.227Z,84.30
2018-05-17T11:08:33.682Z,85.70
2018-05-17T11:11:01.144Z,84.80
2018-05-17T11:13:28.607Z,84.60
2018-05-17T11:15:56.066Z,86.60
2018-05-17T11:18:23.536Z,87.60
2018-05-17T11:20:50.999Z,84.70
2018-05-17T11:23:18.460Z,86.00
2018-05-17T11:25:45.916Z,85.00
2018-05-17T11:28:13.358Z,87.90
2018-05-17T11:30:40.830Z,85.90
2018-05-17T11:33:08.731Z,84.50
2018-05-17T11:35:36.127Z,86.80
2018-05-17T11:38:03.570Z,81.70
2018-05-17T11:40:31.769Z,86.00
2018-05-17T11:42:59.257Z,86.00
2018-05-17T11:45:26.695Z,86.20
2018-05-17T11:47:54.191Z,86.20
2018-05-17T11:50:21.672Z,84.70
2018-05-17T11:52:49.128Z,83.50
2018-05-17T11:55:16.570Z,85.20
2018-05-17T11:57:44.074Z,83.10
2018-05-17T12:00:12.307Z,79.90
2018-05-17T12:02:39.900Z,79.90
2018-05-17T12:05:07.311Z,81.20
2018-05-17T12:07:34.775Z,81.20
2018-05-17T12:10:02.275Z,83.30
2018-05-17T12:12:29.829Z,77.90
2018-05-17T12:14:57.291Z,80.40
2018-05-17T12:17:24.738Z,79.80
2018-05-17T12:19:52.211Z,79.20
2018-05-17T12:22:19.665Z,77.50
2018-05-17T12:24:47.104Z,81.20
2018-05-17T12:27:14.611Z,80.00
2018-05-17T12:29:42.051Z,82.40
2018-05-17T12:32:09.493Z,81.50
2018-05-17T12:34:37.791Z,80.50
2018-05-17T12:37:05.342Z,82.90
2018-05-17T12:39:32.689Z,81.90
2018-05-17T12:42:00.134Z,79.50
2018-05-17T12:44:27.626Z,80.60
2018-05-17T12:46:55.120Z,81.00
2018-05-17T12:49:22.559Z,79.20
2018-05-17T12:51:50.031Z,81.30
2018-05-17T12:54:17.466Z,80.00
2018-05-17T12:56:45.006Z,77.60
2018-05-17T12:59:12.415Z,81.50
2018-05-17T13:01:39.872Z,78.80
2018-05-17T13:04:07.337Z,78.80
2018-05-17T13:06:34.822Z,80.90
2018-05-17T13:09:02.354Z,81.40
2018-05-17T13:11:29.938Z,80.40
2018-05-17T13:13:57.388Z,80.30
2018-05-17T13:16:24.954Z,78.40
2018-05-17T13:18:52.398Z,78.70
2018-05-17T13:21:19.859Z,78.40
2018-05-17T13:23:47.326Z,76.00
2018-05-17T13:26:14.762Z,75.00
2018-05-17T13:28:42.219Z,73.70
2018-05-17T13:31:09.723Z,73.50
2018-05-17T13:33:37.187Z,72.10
2018-05-17T13:36:04.647Z,70.90
2018-05-17T13:38:32.212Z,70.60
2018-05-17T13:40:59.659Z,71.00
2018-05-17T13:43:27.148Z,71.20
2018-05-17T13:45:54.666Z,69.30
2018-05-17T13:48:22.151Z,69.80
2018-05-17T13:50:49.612Z,69.40
2018-05-17T13:53:17.151Z,67.00
2018-05-17T13:55:44.616Z,67.30
2018-05-17T13:58:12.099Z,67.00
2018-05-17T14:00:39.568Z,65.30
2018-05-17T14:03:07.028Z,66.10
2018-05-17T14:05:34.483Z,65.90
2018-05-17T14:08:01.943Z,64.70
2018-05-17T14:10:29.412Z,62.00
2018-05-17T14:12:56.863Z,63.70
2018-05-17T14:15:24.424Z,61.90
2018-05-17T14:17:51.899Z,62.70
2018-05-17T14:20:19.342Z,62.30
2018-05-17T14:22:46.814Z,61.80
2018-05-17T14:25:14.253Z,62.40
2018-05-17T14:27:41.707Z,61.10
2018-05-17T14:30:09.203Z,62.30
2018-05-17T14:32:36.646Z,61.20
2018-05-17T14:35:04.099Z,63.60
2018-05-17T14:37:31.538Z,62.30
2018-05-17T14:39:59.750Z,65.00
2018-05-17T14:42:27.239Z,64.90
2018-05-17T14:44:54.764Z,63.90
2018-05-17T14:47:22.279Z,64.70
2018-05-17T14:49:49.722Z,62.20
2018-05-17T14:52:17.299Z,64.30
2018-05-17T14:54:46.263Z,64.60
2018-05-17T14:57:13.774Z,64.60
2018-05-17T14:59:41.216Z,63.40
2018-05-17T15:02:08.652Z,62.00
2018-05-17T15:04:36.118Z,61.20
2018-05-17T15:07:03.578Z,60.00
2018-05-17T15:09:31.039Z,59.00
2018-05-17T15:11:58.465Z,58.60
2018-05-17T15:14:25.958Z,56.10
2018-05-17T15:16:53.411Z,56.90
2018-05-17T15:19:20.866Z,59.70
2018-05-17T15:21:48.311Z,62.60
2018-05-17T15:24:15.754Z,62.40
2018-05-17T15:26:44.012Z,64.10
2018-05-17T15:29:11.467Z,64.00
2018-05-17T15:31:38.986Z,65.30
2018-05-17T15:34:06.479Z,64.40
2018-05-17T15:36:33.940Z,65.30
2018-05-17T15:39:01.392Z,65.00
2018-05-17T15:41:28.862Z,63.80
2018-05-17T15:43:56.359Z,63.10
2018-05-17T15:46:23.787Z,62.80
2018-05-17T15:48:51.298Z,63.90
2018-05-17T15:51:19.532Z,63.50
2018-05-17T15:53:46.983Z,63.40
2018-05-17T15:56:14.551Z,65.00
2018-05-17T15:58:42.011Z,65.50
2018-05-17T16:01:09.460Z,65.90
2018-05-17T16:03:36.907Z,67.30
2018-05-17T16:06:04.470Z,67.40
2018-05-17T16:08:31.996Z,67.90
2018-05-17T16:11:00.114Z,69.10
2018-05-17T16:13:27.643Z,69.20
2018-05-17T16:15:55.031Z,69.30
2018-05-17T16:18:22.498Z,69.80
2018-05-17T16:20:49.936Z,70.00
2018-05-17T16:23:18.165Z,71.10
2018-05-17T16:25:45.644Z,71.00
2018-05-17T16:28:13.187Z,72.20
2018-05-17T16:30:40.634Z,70.40
2018-05-17T16:33:08.074Z,72.20
2018-05-17T16:35:35.527Z,73.80
2018-05-17T16:38:03.752Z,72.80
2018-05-17T16:40:31.202Z,72.60
2018-05-17T16:42:58.682Z,73.20
2018-05-17T16:45:26.238Z,74.00
2018-05-17T16:47:53.694Z,74.60
2018-05-17T16:50:21.143Z,74.50
2018-05-17T16:52:48.610Z,73.80
2018-05-17T16:55:16.074Z,74.00
2018-05-17T16:57:43.521Z,73.90
2018-05-17T17:00:10.978Z,74.00
2018-05-17T17:02:38.410Z,75.00
2018-05-17T17:05:06.677Z,73.30
2018-05-17T17:07:34.132Z,73.30
2018-05-17T17:10:01.576Z,75.50
2018-05-17T17:12:29.104Z,74.50
2018-05-17T17:14:56.621Z,75.20
2018-05-17T17:17:24.051Z,75.00
2018-05-17T17:19:51.592Z,75.60
2018-05-17T17:22:19.090Z,75.30
2018-05-17T17:24:46.616Z,74.80
2018-05-17T17:27:14.062Z,74.90
2018-05-17T17:29:41.575Z,75.10
2018-05-17T17:32:09.017Z,75.30
2018-05-17T17:34:36.561Z,75.90
2018-05-17T17:37:04.051Z,75.40
2018-05-17T17:39:31.506Z,77.10
2018-05-17T17:41:58.981Z,76.80
2018-05-17T17:44:26.431Z,76.20
2018-05-17T17:46:53.867Z,76.70
2018-05-17T17:49:21.323Z,76.90
2018-05-17T17:51:48.839Z,76.90
2018-05-17T17:54:16.378Z,77.00
2018-05-17T17:56:43.829Z,78.50
2018-05-17T17:59:11.380Z,79.10
2018-05-17T18:01:38.870Z,77.30
2018-05-17T18:04:06.311Z,79.00
2018-05-17T18:06:33.835Z,78.40
2018-05-17T18:09:01.276Z,78.00
2018-05-17T18:11:28.817Z,79.00
2018-05-17T18:13:56.424Z,79.10
2018-05-17T18:16:23.955Z,78.50
2018-05-17T18:18:51.406Z,79.90
2018-05-17T18:21:18.886Z,79.20
2018-05-17T18:23:46.307Z,80.00
2018-05-17T18:26:14.068Z,80.40
2018-05-17T18:28:41.503Z,80.00
2018-05-17T18:31:09.734Z,80.60
2018-05-17T18:33:37.202Z,80.60
2018-05-17T18:36:05.013Z,81.60
2018-05-17T18:38:32.491Z,81.50
2018-05-17T18:40:59.990Z,81.80
2018-05-17T18:43:27.458Z,81.50
2018-05-17T18:45:54.927Z,81.90
2018-05-17T18:48:22.411Z,82.60
2018-05-17T18:50:50.664Z,83.10
2018-05-17T18:53:18.130Z,82.50
2018-05-17T18:55:45.586Z,82.80
2018-05-17T18:58:13.042Z,83.00
2018-05-17T19:00:40.498Z,82.50
2018-05-17T19:03:08.018Z,84.60
2018-05-17T19:05:36.242Z,82.90
2018-05-17T19:08:03.715Z,82.90
2018-05-17T19:10:31.170Z,83.70
2018-05-17T19:12:58.647Z,84.60
2018-05-17T19:15:26.083Z,84.50
2018-05-17T19:17:53.530Z,83.90
2018-05-17T19:20:21.025Z,84.50
2018-05-17T19:22:48.453Z,84.30
2018-05-17T19:25:16.057Z,85.00
2018-05-17T19:27:43.505Z,85.30
2018-05-17T19:30:10.939Z,85.30
2018-05-17T19:32:38.406Z,85.30
2018-05-17T19:35:05.855Z,85.40
2018-05-17T19:37:33.315Z,85.50
2018-05-17T19:40:00.823Z,86.40
2018-05-17T19:42:28.387Z,86.40
2018-05-17T19:44:55.834Z,86.60
2018-05-17T19:47:23.353Z,86.80
2018-05-17T19:49:50.743Z,87.10
2018-05-17T19:52:18.210Z,87.20
2018-05-17T19:54:45.682Z,87.80
2018-05-17T19:57:13.215Z,87.40
2018-05-17T19:59:40.643Z,88.20
2018-05-17T20:02:08.902Z,87.50
2018-05-17T20:04:37.878Z,87.90
2018-05-17T20:07:05.321Z,87.80
2018-05-17T20:09:32.889Z,87.90
2018-05-17T20:12:00.359Z,88.60
2018-05-17T20:14:27.829Z,87.80
2018-05-17T20:16:55.286Z,88.10
2018-05-17T20:19:22.826Z,88.70
2018-05-17T20:21:50.266Z,88.60
2018-05-17T20:24:18.510Z,88.90
2018-05-17T20:26:46.067Z,88.90
2018-05-17T20:29:13.545Z,89.80
2018-05-17T20:31:40.999Z,90.20
2018-05-17T20:34:08.442Z,90.20
2018-05-17T20:36:36.061Z,89.50
2018-05-17T20:39:03.465Z,89.20
2018-05-17T20:41:30.937Z,88.80
2018-05-17T20:43:58.389Z,89.40
2018-05-17T20:46:25.871Z,90.00
2018-05-17T20:48:53.322Z,89.70
2018-05-17T20:51:20.846Z,90.00
2018-05-17T20:53:48.280Z,89.90
2018-05-17T20:56:16.523Z,90.40
2018-05-17T20:58:44.036Z,90.40
2018-05-17T21:01:11.747Z,90.10
2018-05-17T21:03:39.189Z,90.20
2018-05-17T21:06:06.642Z,90.10
2018-05-17T21:08:34.081Z,90.00
2018-05-17T21:11:01.544Z,90.70
2018-05-17T21:13:29.180Z,90.40
2018-05-17T21:15:57.431Z,90.20
2018-05-17T21:18:24.914Z,90.20
2018-05-17T21:20:52.363Z,90.70
2018-05-17T21:23:19.802Z,90.30
2018-05-17T21:25:47.243Z,90.70
2018-05-17T21:28:14.703Z,90.40
2018-05-17T21:30:42.143Z,90.30
2018-05-17T21:33:10.383Z,90.90
2018-05-17T21:35:37.833Z,90.90
2018-05-17T21:38:05.314Z,90.30
2018-05-17T21:40:32.754Z,90.40
2018-05-17T21:43:00.237Z,90.20
2018-05-17T21:45:27.699Z,90.20
2018-05-17T21:47:55.168Z,90.30
2018-05-17T21:50:22.687Z,90.30
2018-05-17T21:52:50.127Z,90.70
2018-05-17T21:55:17.579Z,90.90
2018-05-17T21:57:45.810Z,90.90
2018-05-17T22:00:13.268Z,90.90
2018-05-17T22:02:40.768Z,90.80
2018-05-17T22:05:08.286Z,90.80
2018-05-17T22:07:35.692Z,90.80
2018-05-17T22:10:03.095Z,90.50
2018-05-17T22:12:30.555Z,90.50
2018-05-17T22:14:58.054Z,90.40
2018-05-17T22:17:25.605Z,91.00
2018-05-17T22:19:53.115Z,90.70
2018-05-17T22:22:20.494Z,90.80
2018-05-17T22:24:47.955Z,90.60
2018-05-17T22:27:15.394Z,90.90
2018-05-17T22:29:43.636Z,91.00
2018-05-17T22:32:11.202Z,91.10
2018-05-17T22:34:38.671Z,91.30
2018-05-17T22:37:06.128Z,91.00
2018-05-17T22:39:33.574Z,91.10
2018-05-17T22:42:01.033Z,91.10
2018-05-17T22:44:28.481Z,91.50
2018-05-17T22:46:55.923Z,91.20
2018-05-17T22:49:23.432Z,91.30
2018-05-17T22:51:50.905Z,91.50
2018-05-17T22:54:18.346Z,91.70
2018-05-17T22:56:57.855Z,91.60
2018-05-17T22:59:25.344Z,92.10
2018-05-17T23:01:52.801Z,91.60
2018-05-17T23:04:20.243Z,91.50
2018-05-17T23:06:47.703Z,91.50
2018-05-17T23:09:15.199Z,91.80
2018-05-17T23:11:42.656Z,91.70
2018-05-17T23:14:10.112Z,92.00
2018-05-17T23:16:37.558Z,91.90
2018-05-17T23:19:05.047Z,91.90
2018-05-17T23:21:32.482Z,91.80
2018-05-17T23:23:59.948Z,92.30
2018-05-17T23:26:27.394Z,92.00
2018-05-17T23:28:54.852Z,92.20
2018-05-17T23:31:22.291Z,91.80
2018-05-17T23:33:50.507Z,92.50
2018-05-17T23:36:17.955Z,92.50
2018-05-17T23:38:45.447Z,92.40
2018-05-17T23:41:24.773Z,91.90
2018-05-17T23:43:52.223Z,92.00
2018-05-17T23:46:19.687Z,92.20
2018-05-17T23:48:47.167Z,91.80
2018-05-17T23:51:14.632Z,92.00
2018-05-17T23:53:42.177Z,92.10
2018-05-17T23:56:09.641Z,92.30
2018-05-17T23:58:37.092Z,92.20
